Tuesday, October 21, 2014
00:36 UTC
  |  Log In   |  Register Free
Airport Search:

Petaluma Municipal Airport
(O69)

Petaluma Municipal Airport Diagram
No Airport Diagram Available

FAA data valid effective September 18, 2014 - November 13, 2014 (unless otherwise noted).

 
 
 
 
 
 
 
 
 
 
 
 
 
 

Current Aviation Weather for Petaluma Municipal Airport (O69)

METAR data is unavailable for O69. The nearest METAR location is at KDVO (7.2 nm SE from O69).

The most recent METAR observation for KDVO was updated at: 0011
METAR Summary (Translated METAR)
KDVO
202355Z AUTO 25012G15KT FEW065 19/11 A2996 RMK AO2
(7.2 nm SE from O69)
KAPC
202354Z AUTO 28017KT 10SM CLR 21/11 A2994 RMK AO2 SLP129 60000 T02060111 10222 20178 55003
(15.6 nm SE from O69)
TAF Summary (Translated TAF)
KSTS
(25 nm NW from KDVO)
201720Z 2018/2118 VRB03KT P6SM BKN015 OVC030 TEMPO 2018/2019 2SM -RA BR BKN008 FM202000 25010KT P6SM SCT025 BKN035 FM210300 27005KT P6SM SCT020 FM211000 VRB03KT 3SM BR OVC006
  Airport Weather Conditions for O69

Current weather conditions are
not available for O69


The nearest NOAA weather station
is at DVO, (7.2 nm SE from O69)
  
 Current Weather at DVO
66° F
A Few Clouds
West winds at 13.8 mph
DVO NOAA Radar

Pressure: 29.96 in
Humidity: 60%
Wind: from the West at 13.8 gusting to 17.3 MPH (12 gusting to 15 KT)
Dew Point: 51.8°F


Airport Weather Forecast for O69

Translated METAR and TAF for KDVO
Translated METAR for KDVO (0030 UTC 21 October 2014)
found at http://aviationweather.gov/adds/metars/
 
METAR text: KDVO 210015Z AUTO 25008G17KT 10SM FEW038 FEW065 19/11 A2996 RMK AO2
Conditions at: KDVO (NOVATO/GNOSS FLD, CA, US) observed 0015 UTC 21 October 2014
Temperature: 19.0°C (66°F)
Dewpoint: 11.0°C (52°F) [RH = 60%]
Pressure (altimeter): 29.96 inches Hg (1014.6 mb)
Winds: from the WSW (250 degrees) at 9 MPH (8 knots; 4.2 m/s)
gusting to 20 MPH (17 knots; 8.8 m/s)
Visibility: 10 or more miles (16+ km)
Ceiling: at least 12,000 feet AGL
Clouds: few clouds at 3800 feet AGL
few clouds at 6500 feet AGL
Weather: automated observation with no human augmentation;
there may or may not be significant weather present at this time
Translated TAF for KDVO

There is no translated TAF available for this airport

Find All Airport Services Find A Hotel Find A Rental Car Find A Golf Course Find A Restaurant $100 Hamburger



FBO's on the Field
FBO Company Facility Photos Services Transportation Aviation Fuel Prices: Prices include tax
Catering Weather Repair Courtesy Rental Type 100LL JetA JetA+ MOGAS 8087
 
Petaluma Municipal Airport

Currently rated 4.8 by 1 person
FS:Ascent
Last Updated: Oct-12
Login to update fuel prices
SS:
Contact Petaluma Municipal AirportMore FBO Information
 
Add another FBO Facility Photos Catering Weather Repair Courtesy Rental Type 100LL JetA JetA+ MOGAS 8087
Services Transportation Aviation Fuel Prices: Prices include tax


model-print
model-print
model-print
model-print